CheckWX is a tool to help pilots better visualize weather data.  It is not intended as a substitute for an official pre-flight weather briefing.

05:11:24 UTC

KLYV METAR
Quentin Aanenson Field Airport
Luverne, Minnesota, USA
Current

15 mins ago

KLYV 240456Z AUTO 33015G19KT 7SM BKN120 M08/M11 A2976 RMK AO2
Observed
Feb-24 @ 04:56 UTC
Wind
  • 330° at 15 KTS
  • Gusting to 19 KTS
Visibility
7 SM
Flight Rules
VFR
Cloud Levels
  • Broken at 12,000' AGL
Temperature
-8°C / 18°F
Dewpoint
-11°C / 12°F
Humidity
79%
Altimeter
29.76" Hg
Pressure
1007.82 hPa
Previous

36 mins ago

KLYV 240435Z AUTO 34016G21KT 7SM OVC110 M07/M10 A2975 RMK AO2
Observed
Feb-24 @ 04:35 UTC
Wind
  • 340° at 16 KTS
  • Gusting to 21 KTS
Visibility
7 SM
Flight Rules
VFR
Cloud Levels
  • Overcast at 11,000' AGL
Temperature
-7°C / 19°F
Dewpoint
-10°C / 14°F
Humidity
79%
Altimeter
29.75" Hg
Pressure
1007.42 hPa
Previous

55 mins ago

KLYV 240416Z AUTO 33013G19KT 7SM OVC095 M07/M10 A2975 RMK AO2
Observed
Feb-24 @ 04:16 UTC
Wind
  • 330° at 13 KTS
  • Gusting to 19 KTS
Visibility
7 SM
Flight Rules
VFR
Cloud Levels
  • Overcast at 9,500' AGL
Temperature
-7°C / 19°F
Dewpoint
-10°C / 14°F
Humidity
79%
Altimeter
29.75" Hg
Pressure
1007.42 hPa